Terminal Aerodrome Forecast
Issued by NWS

Home | Current Version | Previous Version | Graphics & Text | Print | Product List | Glossary On
Versions: 1 2 3 4 5 6 7 8 9 10 11 12 13 14 15 16 17 18 19 20
000
FTUS43 KABR 180540
TAFPIR
TAF
KPIR 180540Z 1806/1906 12010KT P6SM BKN200
     FM180900 08007KT P6SM VCTS BKN080CB
     FM181300 04013KT P6SM VCTS BKN060CB
     FM181500 04015KT P6SM BKN070
     FM182200 07010KT P6SM SCT120=

USA.gov is the U.S. government's official web portal to all federal, state and local government web resources and services.